Terminal Aerodrome Forecast
Issued by NWS

Home | Current Version | Previous Version | Text Only | Print | Product List | Glossary On
Versions: 1 2 3 4 5 6 7 8 9 10 11 12 13 14 15 16 17 18 19 20 21 22 23 24
554
FTUS46 KSEW 071745
TAFSEA
TAF
KSEA 071745Z 0718/0824 VRB04KT P6SM BKN080 OVC120
     FM080000 02004KT P6SM SCT120 BKN200
     FM080600 02004KT P6SM SCT200
     FM080900 05004KT 5SM MIFG SCT200
     FM081200 05004KT 2SM MIFG FEW003
     FM081900 01006KT P6SM SKC=

USA.gov is the U.S. government's official web portal to all federal, state and local government web resources and services.